createdAt,value
2022-08-26T00:01:58.270Z,82.78
2022-08-26T00:04:34.128Z,82.94
2022-08-26T00:07:06.596Z,82.86
2022-08-26T00:09:40.332Z,82.73
2022-08-26T00:12:13.535Z,83.00
2022-08-26T00:14:46.079Z,82.96
2022-08-26T00:17:18.719Z,82.75
2022-08-26T00:19:51.969Z,82.71
2022-08-26T00:22:26.240Z,83.14
2022-08-26T00:24:58.659Z,82.81
2022-08-26T00:27:33.900Z,82.99
2022-08-26T00:30:11.311Z,82.87
2022-08-26T00:32:44.103Z,82.86
2022-08-26T00:35:19.045Z,83.05
2022-08-26T00:37:51.672Z,82.89
2022-08-26T00:40:29.523Z,83.31
2022-08-26T00:43:03.263Z,83.08
2022-08-26T00:45:50.971Z,83.34
2022-08-26T00:48:27.907Z,83.25
2022-08-26T00:51:11.931Z,83.09
2022-08-26T00:54:03.983Z,83.03
2022-08-26T00:56:47.081Z,83.06
2022-08-26T00:59:20.572Z,83.01
2022-08-26T01:01:53.133Z,83.01
2022-08-26T01:04:26.110Z,82.93
2022-08-26T01:06:59.110Z,82.90
2022-08-26T01:09:32.591Z,82.73
2022-08-26T01:12:05.564Z,82.62
2022-08-26T01:14:40.302Z,82.63
2022-08-26T01:17:13.065Z,82.45
2022-08-26T01:19:49.736Z,82.55
2022-08-26T01:22:44.420Z,82.49
2022-08-26T01:25:19.465Z,82.47
2022-08-26T01:27:55.072Z,82.53
2022-08-26T01:30:31.184Z,82.34
2022-08-26T01:33:08.176Z,82.50
2022-08-26T01:35:40.815Z,82.17
2022-08-26T01:38:13.768Z,82.24
2022-08-26T01:40:46.963Z,82.11
2022-08-26T01:43:22.969Z,82.10
2022-08-26T01:45:56.920Z,82.22
2022-08-26T01:48:34.295Z,81.97
2022-08-26T01:51:09.689Z,81.93
2022-08-26T01:53:42.255Z,81.97
2022-08-26T01:56:19.670Z,81.89
2022-08-26T01:58:59.499Z,81.95
2022-08-26T02:01:32.640Z,82.11
2022-08-26T02:04:24.181Z,81.63
2022-08-26T02:06:57.442Z,81.44
2022-08-26T02:09:32.394Z,81.57
2022-08-26T02:12:15.713Z,81.48
2022-08-26T02:14:53.188Z,81.42
2022-08-26T02:17:33.418Z,81.58
2022-08-26T02:20:13.309Z,81.37
2022-08-26T02:22:48.267Z,81.72
2022-08-26T02:25:28.411Z,81.79
2022-08-26T02:28:00.943Z,81.81
2022-08-26T02:30:33.879Z,81.84
2022-08-26T02:33:07.478Z,81.83
2022-08-26T02:35:40.705Z,81.96
2022-08-26T02:38:13.381Z,81.71
2022-08-26T02:40:45.880Z,82.06
2022-08-26T02:43:31.499Z,81.97
2022-08-26T02:46:05.922Z,82.05
2022-08-26T02:48:38.870Z,81.99
2022-08-26T02:51:11.756Z,82.05
2022-08-26T02:53:45.727Z,82.25
2022-08-26T02:56:18.504Z,82.51
2022-08-26T02:58:51.154Z,82.66
2022-08-26T03:01:29.930Z,82.87
2022-08-26T03:04:05.228Z,82.97
2022-08-26T03:06:38.487Z,83.12
2022-08-26T03:09:18.505Z,83.30
2022-08-26T03:11:52.109Z,83.36
2022-08-26T03:14:25.059Z,83.74
2022-08-26T03:16:57.528Z,83.38
2022-08-26T03:19:31.996Z,83.56
2022-08-26T03:22:07.487Z,83.45
2022-08-26T03:24:39.887Z,83.44
2022-08-26T03:27:12.968Z,83.63
2022-08-26T03:30:05.422Z,83.51
2022-08-26T03:32:37.883Z,83.45
2022-08-26T03:35:14.067Z,83.30
2022-08-26T03:37:46.488Z,83.11
2022-08-26T03:40:20.587Z,82.98
2022-08-26T03:42:53.204Z,82.83
2022-08-26T03:45:25.771Z,82.66
2022-08-26T03:47:58.732Z,82.67
2022-08-26T03:50:34.211Z,82.44
2022-08-26T03:53:08.315Z,82.47
2022-08-26T03:55:45.824Z,82.63
2022-08-26T03:58:20.388Z,82.55
2022-08-26T04:00:55.744Z,82.49
2022-08-26T04:03:46.905Z,82.46
2022-08-26T04:06:19.330Z,82.29
2022-08-26T04:08:53.567Z,82.35
2022-08-26T04:11:31.312Z,82.32
2022-08-26T04:14:13.344Z,82.16
2022-08-26T04:16:46.396Z,81.79
2022-08-26T04:19:21.496Z,82.04
2022-08-26T04:21:54.357Z,82.34
2022-08-26T04:24:27.878Z,82.22
2022-08-26T04:27:02.434Z,82.49
2022-08-26T04:29:36.125Z,82.82
2022-08-26T04:32:08.753Z,82.50
2022-08-26T04:34:41.870Z,82.49
2022-08-26T04:37:14.280Z,82.72
2022-08-26T04:39:51.120Z,82.82
2022-08-26T04:42:26.269Z,82.92
2022-08-26T04:44:59.301Z,83.08
2022-08-26T04:47:32.478Z,82.94
2022-08-26T04:50:06.967Z,83.06
2022-08-26T04:52:39.984Z,83.33
2022-08-26T04:55:13.463Z,82.97
2022-08-26T04:57:46.542Z,83.18
2022-08-26T05:00:19.543Z,83.06
2022-08-26T05:02:51.927Z,83.09
2022-08-26T05:05:24.322Z,82.87
2022-08-26T05:07:56.841Z,82.81
2022-08-26T05:10:30.009Z,82.58
2022-08-26T05:13:03.631Z,82.42
2022-08-26T05:15:44.755Z,82.45
2022-08-26T05:18:21.167Z,82.26
2022-08-26T05:20:54.849Z,82.50
2022-08-26T05:23:31.359Z,82.10
2022-08-26T05:26:08.127Z,82.10
2022-08-26T05:28:40.634Z,81.98
2022-08-26T05:31:17.360Z,82.06
2022-08-26T05:33:50.402Z,81.86
2022-08-26T05:36:27.109Z,81.89
2022-08-26T05:39:00.185Z,82.20
2022-08-26T05:41:36.489Z,82.13
2022-08-26T05:44:12.659Z,81.74
2022-08-26T05:46:46.640Z,81.73
2022-08-26T05:49:19.152Z,81.76
2022-08-26T05:51:51.836Z,81.91
2022-08-26T05:54:24.293Z,81.90
2022-08-26T05:56:56.680Z,81.08
2022-08-26T05:59:29.568Z,81.09
2022-08-26T06:02:06.178Z,80.89
2022-08-26T06:04:38.883Z,80.16
2022-08-26T06:07:11.778Z,80.37
2022-08-26T06:09:45.552Z,79.90
2022-08-26T06:12:18.512Z,79.26
2022-08-26T06:14:51.169Z,79.76
2022-08-26T06:17:23.928Z,79.89
2022-08-26T06:19:58.165Z,79.80
2022-08-26T06:22:59.576Z,79.50
2022-08-26T06:25:41.851Z,79.33
2022-08-26T06:28:15.969Z,79.28
2022-08-26T06:30:48.455Z,79.75
2022-08-26T06:33:22.571Z,79.67
2022-08-26T06:35:55.397Z,79.85
2022-08-26T06:38:28.520Z,79.29
2022-08-26T06:41:00.951Z,78.82
2022-08-26T06:43:34.468Z,78.91
2022-08-26T06:46:10.047Z,78.48
2022-08-26T06:48:46.004Z,78.78
2022-08-26T06:51:23.648Z,78.81
2022-08-26T06:53:59.496Z,78.42
2022-08-26T06:56:40.856Z,78.67
2022-08-26T06:59:13.281Z,78.18
2022-08-26T07:01:45.846Z,78.32
2022-08-26T07:04:20.134Z,78.04
2022-08-26T07:06:55.283Z,78.28
2022-08-26T07:09:32.348Z,77.46
2022-08-26T07:12:06.794Z,77.83
2022-08-26T07:14:39.941Z,77.33
2022-08-26T07:17:16.682Z,76.38
2022-08-26T07:19:49.147Z,76.04
2022-08-26T07:22:21.748Z,75.07
2022-08-26T07:24:54.825Z,75.38
2022-08-26T07:27:28.228Z,74.93
2022-08-26T07:30:01.085Z,74.89
2022-08-26T07:32:34.656Z,74.51
2022-08-26T07:35:07.456Z,74.77
2022-08-26T07:37:39.916Z,73.94
2022-08-26T07:40:12.411Z,73.85
2022-08-26T07:42:44.896Z,72.84
2022-08-26T07:45:18.068Z,72.15
2022-08-26T07:47:51.679Z,71.66
2022-08-26T07:50:49.882Z,71.77
2022-08-26T07:53:18.056Z,71.89
2022-08-26T07:55:52.361Z,72.03
2022-08-26T07:58:24.888Z,71.71
2022-08-26T08:00:58.331Z,71.64
2022-08-26T08:03:31.824Z,72.19
2022-08-26T08:06:05.084Z,71.79
2022-08-26T08:08:41.294Z,71.90
2022-08-26T08:11:13.866Z,72.09
2022-08-26T08:13:46.888Z,71.93
2022-08-26T08:16:19.413Z,70.65
2022-08-26T08:18:51.912Z,70.43
2022-08-26T08:21:25.396Z,69.43
2022-08-26T08:23:58.478Z,68.36
2022-08-26T08:26:31.179Z,67.68
2022-08-26T08:29:04.144Z,67.51
2022-08-26T08:31:56.739Z,67.08
2022-08-26T08:34:29.357Z,67.48
2022-08-26T08:37:01.824Z,67.82
2022-08-26T08:39:36.167Z,68.33
2022-08-26T08:42:08.881Z,67.84
2022-08-26T08:44:52.123Z,67.36
2022-08-26T08:47:33.903Z,67.23
2022-08-26T08:50:20.780Z,67.36
2022-08-26T08:53:16.449Z,67.52
2022-08-26T08:55:58.041Z,67.74
2022-08-26T08:58:39.223Z,67.48
2022-08-26T09:01:17.867Z,68.35
2022-08-26T09:04:13.375Z,67.54
2022-08-26T09:06:54.323Z,67.87
2022-08-26T09:09:38.299Z,68.58
2022-08-26T09:12:16.706Z,67.17
2022-08-26T09:14:56.659Z,67.96
2022-08-26T09:17:50.870Z,67.11
2022-08-26T09:20:41.587Z,67.26
2022-08-26T09:23:18.197Z,67.09
2022-08-26T09:25:57.121Z,66.34
2022-08-26T09:28:31.540Z,66.76
2022-08-26T09:31:21.398Z,66.22
2022-08-26T09:34:34.476Z,66.19
2022-08-26T09:37:08.156Z,66.04
2022-08-26T09:39:42.284Z,65.67
2022-08-26T09:42:23.136Z,66.02
2022-08-26T09:45:06.105Z,66.22
2022-08-26T09:47:47.974Z,65.86
2022-08-26T09:50:29.167Z,67.41
2022-08-26T09:53:09.970Z,66.36
2022-08-26T09:55:49.030Z,66.80
2022-08-26T09:58:30.552Z,66.31
2022-08-26T10:01:15.736Z,66.71
2022-08-26T10:03:50.127Z,66.85
2022-08-26T10:06:26.706Z,65.63
2022-08-26T10:09:02.719Z,65.32
2022-08-26T10:11:47.220Z,65.55
2022-08-26T10:14:31.780Z,65.62
2022-08-26T10:17:20.833Z,65.86
2022-08-26T10:19:59.309Z,65.76
2022-08-26T10:22:44.397Z,64.87
2022-08-26T10:25:31.450Z,63.92
2022-08-26T10:28:10.992Z,64.60
2022-08-26T10:30:56.080Z,64.20
2022-08-26T10:33:28.785Z,63.61
2022-08-26T10:36:30.103Z,63.99
2022-08-26T10:39:07.574Z,64.20
2022-08-26T10:41:44.161Z,64.77
2022-08-26T10:44:19.583Z,65.67
2022-08-26T10:47:09.952Z,65.13
2022-08-26T10:49:45.832Z,64.89
2022-08-26T10:52:29.438Z,64.58
2022-08-26T10:55:10.564Z,65.92
2022-08-26T10:57:46.580Z,65.73
2022-08-26T11:00:41.449Z,65.31
2022-08-26T11:03:45.485Z,65.26
2022-08-26T11:06:18.022Z,65.11
2022-08-26T11:08:57.865Z,65.50
2022-08-26T11:11:41.257Z,66.07
2022-08-26T11:14:29.875Z,66.13
2022-08-26T11:17:04.043Z,66.05
2022-08-26T11:20:01.523Z,65.76
2022-08-26T11:22:47.680Z,66.01
2022-08-26T11:25:30.066Z,66.39
2022-08-26T11:28:04.520Z,66.23
2022-08-26T11:30:41.425Z,66.65
2022-08-26T11:33:54.303Z,66.78
2022-08-26T11:36:39.984Z,66.05
2022-08-26T11:39:31.073Z,66.54
2022-08-26T11:42:34.226Z,67.54
2022-08-26T11:45:25.466Z,67.25
2022-08-26T11:47:58.022Z,66.82
2022-08-26T11:50:30.546Z,66.50
2022-08-26T11:53:06.113Z,67.31
2022-08-26T11:55:43.296Z,67.25
2022-08-26T11:58:16.417Z,68.17
2022-08-26T12:00:56.109Z,67.40
2022-08-26T12:03:47.215Z,67.20
2022-08-26T12:06:28.410Z,67.18
2022-08-26T12:09:10.648Z,66.93
2022-08-26T12:11:43.772Z,67.31
2022-08-26T12:14:20.680Z,66.98
2022-08-26T12:16:56.690Z,66.87
2022-08-26T12:19:33.717Z,66.46
2022-08-26T12:22:26.481Z,66.38
2022-08-26T12:25:03.412Z,66.47
2022-08-26T12:27:41.532Z,66.38
2022-08-26T12:30:21.228Z,66.35
2022-08-26T12:33:21.912Z,65.19
2022-08-26T12:35:56.762Z,63.99
2022-08-26T12:38:29.887Z,64.06
2022-08-26T12:41:02.448Z,63.90
2022-08-26T12:43:43.653Z,63.85
2022-08-26T12:46:24.388Z,64.03
2022-08-26T12:49:01.101Z,63.87
2022-08-26T12:51:35.239Z,64.49
2022-08-26T12:54:14.188Z,65.36
2022-08-26T12:56:46.747Z,64.98
2022-08-26T12:59:23.602Z,64.18
2022-08-26T13:01:56.566Z,64.12
2022-08-26T13:04:36.752Z,65.30
2022-08-26T13:07:27.429Z,64.80
2022-08-26T13:10:00.940Z,64.63
2022-08-26T13:12:37.088Z,64.11
2022-08-26T13:15:09.711Z,64.67
2022-08-26T13:17:42.158Z,64.27
2022-08-26T13:20:14.576Z,64.80
2022-08-26T13:22:58.541Z,64.18
2022-08-26T13:25:31.658Z,64.61
2022-08-26T13:28:04.084Z,65.06
2022-08-26T13:30:36.512Z,65.06
2022-08-26T13:33:10.915Z,65.56
2022-08-26T13:35:44.876Z,66.16
2022-08-26T13:38:18.552Z,66.70
2022-08-26T13:41:06.108Z,66.16
2022-08-26T13:43:38.584Z,66.68
2022-08-26T13:46:11.180Z,66.79
2022-08-26T13:48:44.804Z,67.74
2022-08-26T13:51:18.578Z,69.78
2022-08-26T13:53:51.921Z,71.14
2022-08-26T13:56:27.371Z,73.67
2022-08-26T13:59:01.300Z,75.86
2022-08-26T14:01:35.084Z,76.26
2022-08-26T14:04:08.485Z,77.17
2022-08-26T14:06:40.876Z,79.92
2022-08-26T14:09:13.802Z,79.63
2022-08-26T14:11:53.799Z,79.58
2022-08-26T14:14:27.391Z,79.85
2022-08-26T14:17:00.742Z,80.31
2022-08-26T14:19:33.281Z,79.13
2022-08-26T14:22:05.755Z,80.19
2022-08-26T14:24:38.216Z,80.85
2022-08-26T14:27:11.703Z,81.25
2022-08-26T14:29:44.160Z,81.53
2022-08-26T14:32:24.068Z,81.11
2022-08-26T14:34:56.520Z,80.53
2022-08-26T14:37:28.909Z,81.86
2022-08-26T14:40:01.580Z,81.26
2022-08-26T14:42:34.629Z,78.13
2022-08-26T14:45:09.569Z,80.15
2022-08-26T14:47:42.506Z,79.80
2022-08-26T14:50:18.588Z,79.86
2022-08-26T14:53:10.553Z,79.97
2022-08-26T14:55:43.161Z,79.13
2022-08-26T14:58:15.705Z,80.51
2022-08-26T15:00:48.153Z,79.90
2022-08-26T15:03:20.731Z,79.63
2022-08-26T15:05:53.436Z,79.77
2022-08-26T15:08:26.057Z,78.95
2022-08-26T15:10:58.822Z,78.27
2022-08-26T15:13:31.341Z,78.95
2022-08-26T15:16:04.189Z,75.92
2022-08-26T15:18:37.356Z,76.56
2022-08-26T15:21:10.358Z,76.29
2022-08-26T15:23:47.821Z,73.62
2022-08-26T15:26:21.980Z,74.16
2022-08-26T15:28:54.504Z,74.19
2022-08-26T15:31:31.156Z,72.68
2022-08-26T15:34:06.918Z,73.49
2022-08-26T15:36:39.473Z,70.24
2022-08-26T15:39:12.928Z,71.07
2022-08-26T15:41:46.028Z,70.86
2022-08-26T15:44:19.136Z,69.91
2022-08-26T15:46:55.314Z,69.28
2022-08-26T15:49:30.773Z,68.53
2022-08-26T15:52:05.494Z,68.49
2022-08-26T15:54:38.468Z,68.97
2022-08-26T15:57:12.409Z,68.44
2022-08-26T15:59:46.017Z,68.42
2022-08-26T16:02:18.485Z,68.81
2022-08-26T16:04:50.983Z,67.62
2022-08-26T16:07:23.785Z,68.46
2022-08-26T16:09:56.678Z,67.50
2022-08-26T16:12:29.097Z,67.88
2022-08-26T16:15:01.586Z,67.06
2022-08-26T16:17:34.065Z,67.27
2022-08-26T16:20:07.972Z,66.43
2022-08-26T16:22:40.465Z,67.41
2022-08-26T16:25:12.918Z,67.35
2022-08-26T16:27:45.365Z,68.17
2022-08-26T16:30:20.050Z,67.96
2022-08-26T16:32:52.475Z,67.36
2022-08-26T16:35:25.903Z,68.70
2022-08-26T16:37:58.397Z,68.47
2022-08-26T16:40:31.322Z,68.36
2022-08-26T16:43:04.519Z,68.96
2022-08-26T16:45:38.173Z,69.21
2022-08-26T16:48:14.341Z,70.58
2022-08-26T16:50:46.775Z,68.83
2022-08-26T16:53:19.328Z,69.51
2022-08-26T16:55:51.856Z,68.60
2022-08-26T16:58:24.263Z,69.09
2022-08-26T17:00:57.287Z,69.83
2022-08-26T17:03:29.687Z,68.92
2022-08-26T17:06:02.162Z,68.64
2022-08-26T17:08:36.261Z,69.38
2022-08-26T17:11:09.788Z,70.24
2022-08-26T17:13:42.252Z,70.01
2022-08-26T17:16:15.351Z,69.41
2022-08-26T17:18:47.864Z,69.19
2022-08-26T17:21:20.325Z,70.61
2022-08-26T17:23:52.932Z,69.67
2022-08-26T17:26:26.351Z,71.22
2022-08-26T17:28:59.973Z,69.48
2022-08-26T17:31:32.504Z,69.38
2022-08-26T17:34:05.839Z,69.96
2022-08-26T17:36:38.300Z,69.47
2022-08-26T17:39:13.285Z,70.61
2022-08-26T17:41:46.406Z,70.73
2022-08-26T17:44:18.801Z,69.77
2022-08-26T17:46:51.296Z,71.00
2022-08-26T17:49:23.777Z,71.34
2022-08-26T17:51:58.608Z,70.04
2022-08-26T17:54:31.720Z,70.00
2022-08-26T17:57:04.816Z,70.60
2022-08-26T17:59:43.022Z,70.96
2022-08-26T18:02:16.031Z,70.09
2022-08-26T18:04:48.831Z,71.44
2022-08-26T18:07:21.256Z,70.99
2022-08-26T18:09:53.677Z,71.08
2022-08-26T18:12:26.136Z,71.20
2022-08-26T18:15:01.633Z,71.05
2022-08-26T18:17:34.480Z,71.28
2022-08-26T18:20:12.389Z,71.17
2022-08-26T18:22:46.199Z,72.10
2022-08-26T18:25:18.946Z,72.81
2022-08-26T18:27:51.563Z,72.19
2022-08-26T18:30:24.163Z,72.91
2022-08-26T18:32:56.655Z,72.03
2022-08-26T18:35:30.287Z,72.03
2022-08-26T18:38:11.277Z,71.73
2022-08-26T18:40:45.543Z,71.75
2022-08-26T18:43:18.040Z,72.47
2022-08-26T18:46:01.442Z,71.98
2022-08-26T18:48:34.477Z,71.92
2022-08-26T18:51:07.096Z,71.51
2022-08-26T18:53:42.834Z,72.20
2022-08-26T18:56:18.065Z,72.67
2022-08-26T18:58:51.572Z,73.37
2022-08-26T19:01:27.326Z,71.50
2022-08-26T19:04:02.405Z,72.45
2022-08-26T19:06:35.975Z,71.68
2022-08-26T19:09:10.311Z,71.38
2022-08-26T19:11:45.259Z,71.87
2022-08-26T19:14:18.791Z,70.84
2022-08-26T19:16:52.525Z,70.67
2022-08-26T19:19:25.068Z,71.56
2022-08-26T19:21:57.873Z,72.81
2022-08-26T19:24:30.445Z,71.93
2022-08-26T19:27:03.275Z,70.72
2022-08-26T19:29:35.915Z,71.49
2022-08-26T19:32:08.743Z,70.42
2022-08-26T19:34:41.136Z,71.99
2022-08-26T19:37:13.652Z,71.32
2022-08-26T19:39:47.187Z,71.19
2022-08-26T19:42:19.667Z,70.53
2022-08-26T19:45:07.668Z,71.10
2022-08-26T19:47:48.426Z,71.64
2022-08-26T19:50:22.028Z,70.87
2022-08-26T19:52:54.653Z,70.95
2022-08-26T19:55:27.312Z,70.72
2022-08-26T19:57:59.763Z,71.79
2022-08-26T20:00:33.527Z,72.17
2022-08-26T20:03:06.710Z,72.53
2022-08-26T20:05:43.086Z,71.13
2022-08-26T20:08:21.958Z,70.96
2022-08-26T20:10:55.655Z,70.49
2022-08-26T20:13:28.367Z,71.33
2022-08-26T20:16:00.901Z,70.50
2022-08-26T20:18:52.046Z,70.12
2022-08-26T20:21:27.773Z,71.40
2022-08-26T20:24:07.116Z,70.42
2022-08-26T20:26:41.394Z,69.65
2022-08-26T20:29:16.279Z,70.34
2022-08-26T20:31:49.319Z,69.65
2022-08-26T20:34:22.228Z,69.79
2022-08-26T20:36:54.716Z,70.07
2022-08-26T20:39:29.801Z,69.48
2022-08-26T20:42:02.644Z,69.90
2022-08-26T20:44:35.097Z,68.65
2022-08-26T20:47:08.375Z,69.32
2022-08-26T20:49:41.192Z,68.32
2022-08-26T20:52:14.937Z,69.03
2022-08-26T20:54:47.332Z,69.53
2022-08-26T20:57:22.157Z,69.01
2022-08-26T20:59:54.577Z,69.31
2022-08-26T21:02:28.120Z,69.59
2022-08-26T21:05:00.637Z,68.93
2022-08-26T21:07:33.294Z,69.29
2022-08-26T21:10:06.101Z,69.12
2022-08-26T21:12:38.494Z,69.64
2022-08-26T21:15:11.071Z,70.77
2022-08-26T21:17:43.493Z,69.09
2022-08-26T21:20:16.111Z,68.95
2022-08-26T21:22:48.604Z,69.66
2022-08-26T21:25:21.097Z,69.83
2022-08-26T21:27:53.552Z,68.80
2022-08-26T21:30:25.965Z,69.26
2022-08-26T21:32:58.394Z,70.03
2022-08-26T21:35:30.884Z,69.84
2022-08-26T21:38:03.386Z,69.17
2022-08-26T21:40:35.860Z,70.02
2022-08-26T21:43:08.377Z,70.55
2022-08-26T21:45:45.550Z,68.99
2022-08-26T21:48:18.559Z,69.91
2022-08-26T21:50:51.104Z,69.54
2022-08-26T21:53:24.032Z,69.22
2022-08-26T21:55:56.482Z,68.63
2022-08-26T21:58:28.904Z,68.92
2022-08-26T22:01:01.765Z,69.73
2022-08-26T22:03:35.186Z,70.24
2022-08-26T22:06:23.509Z,69.34
2022-08-26T22:08:56.298Z,68.59
2022-08-26T22:11:28.867Z,68.75
2022-08-26T22:14:01.396Z,68.85
2022-08-26T22:16:33.884Z,69.00
2022-08-26T22:19:06.716Z,68.10
2022-08-26T22:21:39.573Z,69.96
2022-08-26T22:24:12.453Z,68.58
2022-08-26T22:26:45.289Z,68.89
2022-08-26T22:29:18.719Z,69.06
2022-08-26T22:31:51.334Z,69.17
2022-08-26T22:34:23.776Z,68.74
2022-08-26T22:36:56.247Z,68.17
2022-08-26T22:39:28.695Z,68.29
2022-08-26T22:42:01.341Z,69.44
2022-08-26T22:44:36.411Z,69.61
2022-08-26T22:47:08.817Z,70.95
2022-08-26T22:49:41.388Z,70.03
2022-08-26T22:52:13.829Z,70.03
2022-08-26T22:54:46.302Z,69.94
2022-08-26T22:57:19.421Z,69.43
2022-08-26T22:59:51.832Z,70.06
2022-08-26T23:02:24.294Z,70.05
2022-08-26T23:04:56.701Z,70.49
2022-08-26T23:07:29.144Z,70.85
2022-08-26T23:10:03.941Z,70.26
2022-08-26T23:12:39.258Z,71.33
2022-08-26T23:15:12.235Z,71.93
2022-08-26T23:17:44.788Z,71.63
2022-08-26T23:20:19.451Z,71.86
2022-08-26T23:22:51.940Z,72.39
2022-08-26T23:25:25.348Z,72.26
2022-08-26T23:27:59.761Z,72.61
2022-08-26T23:30:34.632Z,74.15
2022-08-26T23:33:07.131Z,72.79
2022-08-26T23:35:40.396Z,72.91
2022-08-26T23:38:14.245Z,74.13
2022-08-26T23:40:47.652Z,73.35
2022-08-26T23:43:21.779Z,73.56
2022-08-26T23:45:54.244Z,74.24
2022-08-26T23:48:26.691Z,74.77
2022-08-26T23:51:17.855Z,75.54
2022-08-26T23:53:50.426Z,75.38
2022-08-26T23:56:22.893Z,75.23
2022-08-26T23:58:55.459Z,75.38
